Station: Maryborough  

  Atmospheric Gas Attenuation - ITU Rec 676-11   ----------------- dB/100km -----------------
Date Time Temp RH % AH g/m3 Dew Point Wind Direction Speed kph Gust kph Barometer mB Rainfall Since 9am 24GHz 47GHz 76GHz 122GHz 134GHz 241GHz
08/05 09:00 12.4 82 8.96 9.5 9 1013.1 1 20.4 26.9 42.0 110.3 105.1 361.6
07/05 09:00 6.7 74 5.63 2.4 6 1013.1 4 13.5 23.1 31.2 81.3 67.1 227.7
06/05 09:00 12.6 72 7.97 7.8 2 1013.1 0.2 18.3 25.2 37.9 99.3 91.6 314.4
05/05 09:00 11 93 9.31 10 2 1013.1 1 21.3 27.9 44.2 116.3 111.9 385.3
04/05 09:00 11.4 83 8.52 8.6 2 1013.1 9 19.5 26.5 40.7 106.8 100.4 345.2
03/05 09:00 14.8 96 12.16 14.1 7 1013.1 12 27.2 31.7 54.3 143.2 146.5 506.8
02/05 09:00 17.8 50 7.59 7.2 4 1013.1 0 17.3 23.2 34.1 89.2 81.1 278.3
01/05 09:00 15.1 61 7.87 7.8 4 1013.1 0 18.0 24.4 36.3 95.1 87.4 300.2
30/04 09:00 13.8 68 8.1 8 2 1013.1 0 18.5 25.1 37.8 99.1 91.8 315.5
29/04 09:00 11.8 87 9.16 9.7 2 1013.1 0 20.9 27.4 43.1 113.4 108.6 374.1
28/04 09:00 13.8 82 9.77 10.8 2 1013.1 0 22.1 27.8 44.6 117.2 114.2 393.7
27/04 09:00 13.1 86 9.81 10.8 4 1013.1 0 22.2 28.1 45.2 118.8 115.8 399.2
26/04 09:00 14 66 7.96 7.8 2 1013.1 0 18.2 24.8 37.2 97.4 89.8 308.4
25/04 09:00 11.2 71 7.2 6.1 2 1013.1 0 16.7 24.4 35.5 92.8 83.1 284.5
24/04 09:00 12 75 7.99 7.8 4 1013.1 0 18.4 25.4 38.2 100.2 92.5 317.7
23/04 09:00 11 84 8.41 8.4 2 1013.1 0 19.3 26.4 40.4 106.1 99.4 341.7
22/04 09:00 13.2 78 8.96 9.5 2 1013.1 0 20.4 26.7 41.6 109.1 104.0 357.9
21/04 09:00 13.2 82 9.42 10.3 2 1013.1 0 21.4 27.4 43.5 114.2 110.2 379.8
20/04 09:00 13.8 60 7.15 6.2 2 1013.1 0 16.5 23.6 34.1 89.3 79.7 273.1
19/04 09:00 5.2 83 5.72 2.5 2 1013.1 0 13.8 23.6 32.1 83.8 69.6 236.3
18/04 09:00 11 63 6.31 4.2 4 1013.1 0.2 14.8 23.0 32.1 83.8 71.9 245.3
17/04 09:00 11.7 77 8.05 7.9 2 1013.1 0 18.5 25.6 38.6 101.3 93.7 321.7
16/04 09:00 10.2 90 8.57 8.6 2 1013.1 0 19.7 26.9 41.5 109.0 102.7 353.0
15/04 09:00 11.3 94 9.59 10.3 2 1013.1 0 21.8 28.3 45.3 119.0 115.4 397.7
14/04 09:00 13.3 83 9.59 10.5 2 1013.1 0 21.7 27.7 44.1 116.0 112.4 387.5
13/04 09:00 12.7 80 8.91 9.4 2 1013.1 0.4 20.3 26.7 41.6 109.3 104.0 357.9
12/04 09:00 10.9 67 6.67 5.1 4 1013.1 2 15.6 23.6 33.5 87.6 76.6 261.6
11/04 09:00 8.1 85 7.08 5.7 4 1013.1 0.8 16.6 25.0 36.4 95.2 84.9 290.3
10/04 09:00 13.4 69 8.02 7.8 13 1013.1 17 18.4 25.1 37.7 98.8 91.3 313.5
09/04 09:00 14.5 93 11.57 13.4 4 1013.1 4 25.9 30.7 51.9 136.8 138.5 478.6
08/04 09:00 9.4 81 7.33 6.4 4 1013.1 0 17.1 25.1 36.8 96.4 86.8 297.2
07/04 09:00 15.6 96 12.77 14.9 4 1013.1 0.2 28.4 32.5 56.5 149.0 153.9 532.8
06/04 09:00 14.5 94 11.69 13.6 2 1013.1 7 26.2 30.9 52.4 138.2 140.2 484.7
05/04 09:00 15 70 8.98 9.7 2 1013.1 20.3 26.2 40.7 106.9 101.9 350.7
04/04 09:00 11 65 6.51 4.7 4 1013.1 0 15.2 23.3 32.9 85.9 74.4 254.2
03/04 09:00 13.1 91 10.38 11.6 4 1013.1 0 23.4 29.1 47.6 125.3 123.8 427.2
02/04 09:00 10.3 92 8.81 9.1 2 1013.1 0 20.2 27.3 42.5 111.6 105.9 364.2
01/04 09:00 14.3 85 10.44 11.9 2 1013.1 0 23.5 28.8 47.1 124.0 122.7 423.6
31/03 09:00 11.9 85 9 9.4 2 1013.1 0 20.5 27.1 42.4 111.4 106.3 365.9
30/03 09:00 10.7 90 8.84 9.1 2 1013.1 0 20.3 27.2 42.4 111.3 105.7 363.8
29/03 09:00 11 90 9.01 9.4 2 1013.1 0 20.6 27.4 43.0 112.8 107.7 370.6
28/03 09:00 12 94 10.02 11.1 6 1013.1 0 22.7 28.8 46.7 122.9 120.4 415.3
27/03 09:00 9.2 83 7.41 6.4 6 1013.1 0.6 17.2 25.3 37.2 97.5 88.1 301.7
26/03 09:00 13.1 80 9.13 9.8 2 1013.1 0.6 20.8 27.0 42.3 111.2 106.4 366.5
25/03 09:00 15.2 97 12.59 14.7 2 1013.1 8 28.1 32.3 56.0 147.6 152.1 526.2
24/03 09:00 16.9 79 11.36 13.2 2 1013.1 0 25.3 29.5 49.4 130.2 131.2 453.7
23/03 09:00 16 78 10.63 12.2 2 1013.1 0 23.8 28.6 46.9 123.5 122.6 423.5
22/03 09:00 11.8 92 9.68 10.5 2 1013.1 0 22.0 28.3 45.4 119.3 115.9 399.5
21/03 09:00 15.5 73 9.65 10.7 2 1013.1 0 21.7 27.1 43.1 113.4 110.1 379.5
20/03 09:00 11.5 92 9.5 10.3 2 1013.1 0 21.6 28.1 44.8 117.7 113.8 392.2
19/03 09:00 16 85 11.58 13.5 4 1013.1 0 25.9 30.2 51.0 134.3 135.9 469.9
18/03 09:00 13.8 88 10.49 11.8 2 1013.1 0.2 23.6 29.1 47.6 125.4 124.2 428.8
17/03 09:00 16.1 93 12.75 14.9 2 1013.1 8 28.4 32.2 56.1 147.8 152.6 528.3
16/03 09:00 19 67 10.92 12.7 2 1013.1 0 24.3 28.1 46.3 121.9 121.8 421.0
15/03 09:00 13.6 81 9.53 10.4 2 1013.1 0 21.6 27.5 43.7 114.9 111.2 383.1
13/03 09:00 13.8 63 7.51 6.9 4 1013.1 0 17.3 24.2 35.5 93.0 84.3 289.0
12/03 09:00 12.9 69 7.78 7.4 6 1013.1 0 17.9 24.8 37.0 96.9 88.7 304.5
11/03 09:00 19.3 63 10.45 12.2 2 1013.1 0 23.2 27.2 44.3 116.5 115.1 397.7
10/03 09:00 14.3 84 10.32 11.7 2 1013.1 0 23.2 28.6 46.6 122.7 121.0 417.7
09/03 09:00 17.8 78 11.84 14 4 1013.1 0 26.3 30.0 50.9 134.1 136.4 471.7
08/03 09:00 14.6 75 9.39 10.3 6 1013.1 0 21.2 26.9 42.6 111.9 107.8 371.7
07/03 09:00 15.3 84 10.97 12.6 4 1013.1 0 24.6 29.4 48.8 128.4 128.5 443.9
06/03 09:00 14.5 87 10.82 12.3 2 1013.1 0 24.3 29.4 48.6 128.0 127.7 441.1
05/03 09:00 14.1 81 9.83 10.9 2 1013.1 0 22.2 27.8 44.7 117.5 114.6 395.0
04/03 09:00 15.2 85 11.03 12.7 2 1013.1 0 24.7 29.5 49.1 129.3 129.5 447.5
03/03 09:00 15.8 93 12.52 14.6 4 1013.1 5 27.9 31.9 55.2 145.6 149.9 518.5
02/03 09:00 18.3 98 15.32 18 4 1013.1 35 33.7 36.1 66.1 174.7 186.4 646.3
01/03 09:00 20.2 82 14.34 17.1 2 1013.1 10 31.5 33.5 60.1 158.6 167.2 579.8
28/02 09:00 21.4 81 15.18 18.1 4 1013.1 10 33.2 34.5 62.9 166.0 176.8 613.2
27/02 09:00 23 65 13.36 16.1 4 1013.1 0 29.2 30.8 53.8 141.9 147.7 511.9
26/02 09:00 16.1 80 10.97 12.7 4 1013.1 0.2 24.5 29.1 48.3 127.1 127.2 439.4
25/02 09:00 16.2 74 10.2 11.6 6 1013.1 12 22.9 27.8 45.0 118.4 116.4 401.9
24/02 09:00 19.2 69 11.38 13.5 4 1013.1 0.4 25.2 28.8 48.1 126.6 127.6 441.4
23/02 09:00 13.5 65 7.6 7.2 6 1013.1 11 17.5 24.4 36.0 94.3 85.7 294.2
22/02 09:00 22.3 58 11.45 13.8 2 1013.1 0 25.2 27.9 46.5 122.5 123.5 427.5
21/02 09:00 15.7 81 10.84 12.5 4 1013.1 0 24.3 29.0 48.0 126.3 126.0 435.3
20/02 09:00 14 82 9.89 11 2 1013.1 0 22.3 28.0 45.0 118.3 115.5 398.4
19/02 09:00 13.8 77 9.17 9.8 6 1013.1 0 20.8 26.8 42.1 110.6 106.0 365.1
18/02 09:00 13.3 82 9.47 10.3 2 1013.1 2 21.5 27.5 43.6 114.6 110.8 381.7
17/02 09:00 22.1 44 8.59 9.4 6 1013.1 0 19.2 23.6 35.9 94.0 88.4 304.6
16/02 09:00 21.6 60 11.38 13.5 4 1013.1 0 25.1 28.0 46.6 122.8 123.7 428.1
15/02 09:00 18.9 72 11.66 13.7 4 1013.1 0 25.8 29.3 49.4 130.2 131.9 456.4
14/02 09:00 15.1 76 9.8 11 4 1013.1 0 22.1 27.5 44.0 115.6 112.7 388.6
13/02 09:00 11.9 85 9 9.4 4 1013.1 0 20.5 27.1 42.4 111.4 106.3 365.9
12/02 09:00 12.8 76 8.51 8.7 4 1013.1 3 19.4 26.0 39.9 104.8 98.5 338.6
10/02 09:00 15.7 91 12.18 14.3 4 1013.1 0 27.2 31.4 53.8 141.8 145.1 501.9
09/02 09:00 19.5 80 13.43 16 4 1013.1 0 29.6 32.2 56.6 149.3 155.6 539.0
08/02 09:00 22.8 84 17.07 19.9 2 1013.1 0 37.1 37.4 70.3 185.8 201.5 699.4
07/02 09:00 17.3 68 10.02 11.3 2 1013.1 0 22.4 27.1 43.7 114.8 112.4 388.0
06/02 09:00 14.2 69 8.43 8.7 2 1013.1 0 19.2 25.5 38.9 102.1 95.7 328.9
05/02 09:00 15.5 76 10.05 11.3 6 1013.1 0 22.6 27.8 44.8 117.8 115.5 398.4
04/02 09:00 19.9 46 7.9 8.1 4 1013.1 0 17.8 23.2 34.3 89.9 82.6 284.0
02/02 09:00 13.7 55 6.51 4.8 7 1013.1 0 15.1 22.7 31.8 83.0 71.9 245.7
01/02 09:00 15.2 64 8.31 8.6 6 1013.1 0.4 18.9 25.0 38.0 99.6 92.9 319.4
30/01 09:00 24.8 47 10.7 13 2 1013.1 0 23.5 26.0 42.3 111.2 110.4 381.8
29/01 09:00 18 77 11.83 14 6 1013.1 0 26.3 29.9 50.7 133.6 135.9 470.0
28/01 09:00 22 67 13 15.7 6 1013.1 0 28.5 30.5 53.0 139.7 144.7 501.2
27/01 09:00 24.2 42 9.24 10.7 2 1013.1 0 20.4 24.0 37.2 97.8 93.7 323.2
26/01 09:00 20.1 39 6.78 6 4 1013.1 0 15.5 21.5 30.3 79.2 69.5 237.8
25/01 09:00 20.2 64 11.19 13.3 7 1013.1 0 24.8 28.1 46.7 123.0 123.5 427.0

Last Refresh: 08-May-2026 12:08:02

Bureau of Meteorology